Time;durP1;ratioP1;P1;durP2;ratioP2;P2;SDS_P1;SDS_P2;PMS_P1;PMS_P2;Temp;Humidity;BMP_temperature;BMP_pressure;BME280_temperature;BME280_humidity;BME280_pressure;Samples;Min_cycle;Max_cycle;Signal;HPM_P1;HPM_P2
2021/12/15 00:02:28;;;;;;;11.57;4.88;;;7.40;88.60;;;;;;5058668;28;20170;-70
2021/12/15 00:05:01;;;;;;;10.15;4.97;;;7.40;88.70;;;;;;5024554;28;23030;-70
2021/12/15 00:07:49;;;;;;;8.50;4.05;;;7.40;88.70;;;;;;3980743;28;10002026;-70
2021/12/15 00:10:22;;;;;;;11.32;4.18;;;7.40;88.60;;;;;;2447749;28;10002047;-70
2021/12/15 00:12:57;;;;;;;11.07;4.32;;;7.30;88.60;;;;;;5068032;28;20048;-68
2021/12/15 00:15:27;;;;;;;16.52;4.75;;;7.40;88.60;;;;;;5066334;28;20047;-70
2021/12/15 00:17:56;;;;;;;12.43;4.15;;;7.30;88.70;;;;;;5068205;28;20075;-70
2021/12/15 00:20:24;;;;;;;11.02;3.90;;;7.40;88.70;;;;;;5066740;28;20047;-70
2021/12/15 00:22:53;;;;;;;11.20;4.38;;;7.40;88.60;;;;;;5059506;28;20044;-69
2021/12/15 00:25:22;;;;;;;12.75;4.13;;;7.40;88.70;;;;;;5058039;28;20066;-70
2021/12/15 00:27:49;;;;;;;11.85;4.47;;;7.40;88.60;;;;;;5063093;28;20056;-70
2021/12/15 00:30:16;;;;;;;12.80;4.80;;;7.40;88.60;;;;;;5059293;28;20044;-68
2021/12/15 00:32:43;;;;;;;10.18;4.32;;;7.40;88.60;;;;;;5076063;28;20056;-69
2021/12/15 00:35:11;;;;;;;14.00;4.72;;;7.40;88.60;;;;;;5058039;28;20547;-69
2021/12/15 00:37:38;;;;;;;15.55;5.13;;;7.40;88.60;;;;;;5060793;28;20059;-69
2021/12/15 00:40:11;;;;;;;11.98;4.78;;;7.40;88.60;;;;;;5061643;28;20148;-70
2021/12/15 00:42:38;;;;;;;11.85;5.38;;;7.40;88.70;;;;;;5071713;28;20052;-70
2021/12/15 00:45:08;;;;;;;9.93;4.40;;;7.40;88.70;;;;;;5060289;28;20040;-69
2021/12/15 00:47:35;;;;;;;10.02;4.97;;;7.40;88.70;;;;;;5062655;28;20051;-70
2021/12/15 00:50:06;;;;;;;13.25;5.57;;;7.30;88.70;;;;;;5061483;28;20129;-69
2021/12/15 00:52:34;;;;;;;12.43;5.63;;;7.30;88.70;;;;;;5060400;28;20049;-70
2021/12/15 00:55:01;;;;;;;11.60;5.30;;;7.30;88.70;;;;;;5068643;28;20068;-68
2021/12/15 00:57:30;;;;;;;11.43;4.32;;;7.40;88.70;;;;;;5064320;28;20047;-69
2021/12/15 00:59:57;;;;;;;10.88;5.45;;;7.30;88.60;;;;;;5065776;28;20055;-69
2021/12/15 01:02:26;;;;;;;9.35;4.60;;;7.30;88.70;;;;;;5054538;28;21050;-70
2021/12/15 01:04:53;;;;;;;11.85;4.78;;;7.30;88.60;;;;;;5061012;28;20052;-69
2021/12/15 01:07:20;;;;;;;11.25;5.43;;;7.30;88.60;;;;;;5060007;28;21132;-69
2021/12/15 01:09:54;;;;;;;11.38;4.93;;;7.30;88.60;;;;;;5060990;28;20045;-70
2021/12/15 01:12:41;;;;;;;12.35;5.85;;;7.30;88.60;;;;;;5062133;28;20037;-70
2021/12/15 01:20:46;;;;;;;9.15;4.90;;;7.20;88.60;;;;;;5058109;28;19934;-69
2021/12/15 01:23:16;;;;;;;11.85;4.82;;;7.20;88.60;;;;;;5060131;28;20044;-70
2021/12/15 01:25:48;;;;;;;8.82;4.43;;;7.20;88.60;;;;;;5060668;28;20067;-71
2021/12/15 01:28:16;;;;;;;8.10;3.97;;;7.20;88.60;;;;;;5077186;28;20048;-70
2021/12/15 01:30:48;;;;;;;10.80;5.70;;;7.20;88.50;;;;;;5061067;28;20055;-69
2021/12/15 01:33:15;;;;;;;11.63;4.95;;;7.20;88.50;;;;;;5058404;28;20126;-70
2021/12/15 01:35:45;;;;;;;12.60;5.43;;;7.20;88.50;;;;;;5059722;28;20037;-70
2021/12/15 01:38:13;;;;;;;11.75;5.88;;;7.20;88.50;;;;;;5056405;28;20037;-68
2021/12/15 01:40:43;;;;;;;15.18;6.40;;;7.20;88.50;;;;;;5061087;28;20036;-69
2021/12/15 01:43:16;;;;;;;12.30;4.88;;;7.20;88.50;;;;;;5060500;28;20043;-69
2021/12/15 01:48:33;;;;;;;11.57;5.38;;;7.20;88.50;;;;;;5059150;28;20145;-69
2021/12/15 01:51:00;;;;;;;12.02;4.18;;;7.20;88.50;;;;;;5058755;28;20044;-71
2021/12/15 01:53:28;;;;;;;10.25;5.10;;;7.20;88.50;;;;;;5055126;28;20040;-70
2021/12/15 01:55:55;;;;;;;14.73;5.22;;;7.20;88.50;;;;;;5065654;28;20048;-69
2021/12/15 01:58:23;;;;;;;12.07;5.10;;;7.10;88.60;;;;;;5059937;28;20059;-71
2021/12/15 02:00:54;;;;;;;12.38;5.40;;;7.20;88.50;;;;;;5062076;28;20086;-70
2021/12/15 02:03:22;;;;;;;13.95;5.45;;;7.20;88.50;;;;;;5064627;28;20040;-70
2021/12/15 02:05:49;;;;;;;11.20;4.93;;;7.10;88.50;;;;;;5060674;28;20040;-69
2021/12/15 02:08:17;;;;;;;10.35;5.30;;;7.20;88.50;;;;;;5062807;28;20124;-70
2021/12/15 02:10:44;;;;;;;9.98;4.95;;;7.20;88.50;;;;;;5058310;28;20083;-70
2021/12/15 02:13:14;;;;;;;11.80;5.18;;;7.20;88.40;;;;;;5057671;28;20044;-70
2021/12/15 02:15:43;;;;;;;;;;;7.20;88.40;;;;;;5064012;28;20127;-70
2021/12/15 02:18:14;;;;;;;9.25;4.65;;;7.10;88.50;;;;;;5062261;28;19920;-70
2021/12/15 02:20:44;;;;;;;11.05;4.65;;;7.10;88.40;;;;;;5079201;28;20131;-69
2021/12/15 02:23:14;;;;;;;;;;;7.10;88.40;;;;;;5063321;28;20051;-69
2021/12/15 02:25:41;;;;;;;8.25;3.78;;;7.10;88.50;;;;;;5074288;28;20351;-68
2021/12/15 02:28:09;;;;;;;11.38;5.22;;;7.10;88.40;;;;;;5060981;28;20052;-70
2021/12/15 02:30:50;;;;;;;9.85;4.50;;;7.10;88.50;;;;;;5071571;28;20060;-70
2021/12/15 02:39:07;;;;;;;11.60;5.53;;;7.10;88.40;;;;;;5046463;28;20076;-69
2021/12/15 02:41:36;;;;;;;;;;;7.10;88.50;;;;;;5056013;28;20505;-69
2021/12/15 02:44:07;;;;;;;10.77;4.60;;;7.10;88.50;;;;;;5058356;28;19974;-69
2021/12/15 02:46:36;;;;;;;12.73;5.07;;;7.10;88.50;;;;;;5061278;28;20068;-69
2021/12/15 02:49:06;;;;;;;10.93;4.70;;;7.10;88.60;;;;;;5057859;28;20044;-69
2021/12/15 02:51:34;;;;;;;10.17;4.00;;;7.10;88.50;;;;;;5056487;28;20064;-70
2021/12/15 02:54:03;;;;;;;11.48;4.63;;;7.10;88.60;;;;;;5059855;28;20047;-69
2021/12/15 02:56:30;;;;;;;12.80;5.10;;;7.10;88.60;;;;;;5059627;28;20040;-70
2021/12/15 02:59:01;;;;;;;11.00;5.00;;;7.10;88.60;;;;;;5060734;28;20047;-70
2021/12/15 03:01:37;;;;;;;10.63;5.20;;;7.10;88.70;;;;;;5057114;28;20040;-70
2021/12/15 03:04:15;;;;;;;11.05;4.68;;;7.10;88.60;;;;;;5060920;28;20047;-70
2021/12/15 03:06:52;;;;;;;11.40;5.10;;;7.10;88.60;;;;;;5059467;28;20090;-69
2021/12/15 03:17:34;;;;;;;9.50;4.30;;;7.10;88.50;;;;;;5065068;28;20402;-70
2021/12/15 03:20:01;;;;;;;10.88;4.20;;;7.10;88.60;;;;;;5064155;28;20048;-70
2021/12/15 03:22:29;;;;;;;12.20;5.25;;;7.10;88.50;;;;;;5081230;28;20048;-70
2021/12/15 03:24:56;;;;;;;11.98;4.88;;;7.10;88.60;;;;;;5068191;28;20048;-70
2021/12/15 03:33:14;;;;;;;14.52;5.22;;;7.10;88.60;;;;;;5062211;28;20037;-70
2021/12/15 03:36:01;;;;;;;10.90;4.25;;;7.20;88.60;;;;;;5046704;28;20103;-70
2021/12/15 03:38:31;;;;;;;10.52;4.47;;;7.20;88.60;;;;;;5059724;28;20058;-69
2021/12/15 03:40:58;;;;;;;12.32;4.80;;;7.20;88.60;;;;;;5061413;28;20045;-71
2021/12/15 03:43:25;;;;;;;12.38;5.50;;;7.20;88.60;;;;;;5066277;28;20062;-71
2021/12/15 03:45:55;;;;;;;10.00;4.25;;;7.10;88.50;;;;;;5071087;28;20041;-70
2021/12/15 03:48:26;;;;;;;9.32;4.07;;;7.10;88.60;;;;;;5069582;28;20055;-70
2021/12/15 03:50:56;;;;;;;9.88;4.47;;;7.10;88.50;;;;;;5070572;28;20059;-72
2021/12/15 03:53:24;;;;;;;11.57;5.15;;;7.20;88.50;;;;;;5070114;28;20106;-70
2021/12/15 03:55:52;;;;;;;12.43;4.68;;;7.20;88.50;;;;;;5069991;28;20445;-71
2021/12/15 03:58:22;;;;;;;11.35;4.72;;;7.10;88.50;;;;;;5069583;28;20040;-71
2021/12/15 04:00:53;;;;;;;10.75;4.63;;;7.10;88.60;;;;;;5066955;28;20481;-71
2021/12/15 04:03:23;;;;;;;10.75;4.93;;;7.10;88.50;;;;;;5067496;28;20068;-71
2021/12/15 04:05:51;;;;;;;11.35;4.45;;;7.10;88.50;;;;;;5070544;28;20049;-71
2021/12/15 04:08:18;;;;;;;11.05;4.50;;;7.10;88.50;;;;;;5072932;28;20079;-71
2021/12/15 04:10:46;;;;;;;10.93;4.07;;;7.20;88.50;;;;;;5069954;28;20497;-71
2021/12/15 04:13:14;;;;;;;11.05;4.97;;;7.10;88.50;;;;;;5065651;28;20044;-70
2021/12/15 04:15:47;;;;;;;9.40;4.13;;;7.20;88.50;;;;;;5078419;28;20044;-69
2021/12/15 04:18:15;;;;;;;9.20;4.30;;;7.20;88.50;;;;;;5066938;28;20040;-70
2021/12/15 04:20:42;;;;;;;11.93;4.72;;;7.20;88.40;;;;;;5066922;28;20437;-69
2021/12/15 04:23:11;;;;;;;10.02;4.70;;;7.20;88.40;;;;;;5062554;28;20077;-69
2021/12/15 04:25:42;;;;;;;11.27;4.95;;;7.20;88.40;;;;;;5068673;28;20050;-68
2021/12/15 04:28:12;;;;;;;8.20;3.85;;;7.20;88.40;;;;;;5068481;28;20047;-69
2021/12/15 04:30:49;;;;;;;10.20;4.75;;;7.10;88.40;;;;;;5067944;28;20413;-69
2021/12/15 04:33:20;;;;;;;10.13;4.50;;;7.10;88.50;;;;;;5067214;28;20379;-70
2021/12/15 04:35:49;;;;;;;11.15;5.40;;;7.20;88.40;;;;;;5068761;28;20115;-70
2021/12/15 04:38:16;;;;;;;10.32;4.95;;;7.10;88.50;;;;;;5083764;28;20462;-68
2021/12/15 04:40:44;;;;;;;13.20;4.47;;;7.10;88.40;;;;;;5068059;28;20044;-69
2021/12/15 04:43:12;;;;;;;9.50;4.38;;;7.20;88.50;;;;;;5068389;28;20044;-69
2021/12/15 04:45:39;;;;;;;9.48;4.75;;;7.20;88.40;;;;;;5083784;28;20432;-69
2021/12/15 04:48:09;;;;;;;8.40;3.80;;;7.20;88.40;;;;;;5068196;28;20047;-69
2021/12/15 04:50:36;;;;;;;9.23;3.72;;;7.20;88.40;;;;;;5069133;28;20118;-70
2021/12/15 04:53:07;;;;;;;10.35;4.13;;;7.20;88.50;;;;;;5067093;28;20064;-69
2021/12/15 04:55:34;;;;;;;;;;;7.20;88.40;;;;;;5066434;28;20042;-70
2021/12/15 04:58:04;;;;;;;9.13;3.85;;;7.20;88.40;;;;;;5069074;28;19921;-69
2021/12/15 05:00:35;;;;;;;9.60;4.30;;;7.20;88.50;;;;;;5063207;28;20510;-68
2021/12/15 05:03:03;;;;;;;10.75;4.15;;;7.20;88.40;;;;;;5069140;28;20052;-69
2021/12/15 05:05:33;;;;;;;12.10;4.00;;;7.20;88.50;;;;;;5066289;28;20041;-69
2021/12/15 05:08:00;;;;;;;8.18;3.85;;;7.20;88.50;;;;;;5067070;28;20047;-70
2021/12/15 05:10:29;;;;;;;6.68;3.50;;;7.20;88.50;;;;;;5062043;28;20289;-69
2021/12/15 05:12:57;;;;;;;9.45;3.55;;;7.20;88.50;;;;;;5065492;28;20040;-69
2021/12/15 05:15:24;;;;;;;10.38;4.85;;;7.20;88.50;;;;;;5067698;28;20056;-70
2021/12/15 05:17:52;;;;;;;12.55;4.53;;;7.30;88.40;;;;;;5067930;28;20041;-69
2021/12/15 05:20:19;;;;;;;9.40;4.50;;;7.30;88.40;;;;;;5066169;28;20047;-69
2021/12/15 05:22:48;;;;;;;11.45;4.05;;;7.20;88.40;;;;;;5083306;28;20521;-69
2021/12/15 05:25:15;;;;;;;11.85;4.78;;;7.30;88.40;;;;;;5067128;28;20040;-70
2021/12/15 05:27:43;;;;;;;10.73;4.35;;;7.20;88.50;;;;;;5065272;28;20134;-69
2021/12/15 05:30:12;;;;;;;11.40;4.70;;;7.20;88.50;;;;;;5065971;28;20037;-70
2021/12/15 05:32:39;;;;;;;11.88;5.43;;;7.20;88.50;;;;;;5067151;28;20051;-69
2021/12/15 05:35:09;;;;;;;13.77;4.82;;;7.20;88.50;;;;;;5064984;28;20044;-69
2021/12/15 05:37:37;;;;;;;9.63;4.80;;;7.20;88.50;;;;;;5066577;28;20039;-69
2021/12/15 05:40:08;;;;;;;11.43;5.13;;;7.20;88.60;;;;;;5065470;28;20063;-67
2021/12/15 05:42:35;;;;;;;14.05;6.13;;;7.20;88.60;;;;;;5066260;28;20036;-68
2021/12/15 05:45:02;;;;;;;15.15;5.60;;;7.20;88.60;;;;;;5065754;28;20045;-69
2021/12/15 05:47:29;;;;;;;12.82;5.75;;;7.20;88.60;;;;;;5068213;28;20055;-68
2021/12/15 05:49:57;;;;;;;11.55;6.00;;;7.20;88.60;;;;;;5066079;28;20049;-70
2021/12/15 05:52:27;;;;;;;13.18;6.25;;;7.20;88.60;;;;;;5066887;28;20490;-69
2021/12/15 05:54:55;;;;;;;13.82;5.78;;;7.20;88.60;;;;;;5064928;28;20055;-70
2021/12/15 05:57:23;;;;;;;14.30;6.22;;;7.20;88.70;;;;;;5068359;28;20051;-69
2021/12/15 05:59:58;;;;;;;13.68;5.70;;;7.30;88.80;;;;;;5066900;28;20075;-69
2021/12/15 06:02:25;;;;;;;15.13;6.50;;;7.30;88.70;;;;;;5066765;28;20132;-69
2021/12/15 06:04:52;;;;;;;14.38;6.38;;;7.20;88.70;;;;;;5068844;28;20053;-70
2021/12/15 06:07:23;;;;;;;12.45;6.45;;;7.30;88.70;;;;;;5083650;28;20045;-70
2021/12/15 06:09:50;;;;;;;14.90;6.13;;;7.20;88.80;;;;;;5068984;28;20143;-70
2021/12/15 06:12:17;;;;;;;16.30;6.75;;;7.30;88.80;;;;;;5067655;28;20045;-69
2021/12/15 06:14:46;;;;;;;14.15;7.00;;;7.20;88.80;;;;;;5075112;28;20048;-68
2021/12/15 06:17:16;;;;;;;14.75;6.22;;;7.30;88.80;;;;;;5063743;28;20071;-68
2021/12/15 06:19:43;;;;;;;11.43;6.10;;;7.30;88.70;;;;;;5064609;28;20040;-70
2021/12/15 06:22:11;;;;;;;15.52;6.22;;;7.30;88.70;;;;;;5059608;28;20070;-69
2021/12/15 06:24:38;;;;;;;17.67;6.68;;;7.30;88.70;;;;;;5060022;28;20044;-70
2021/12/15 06:27:15;;;;;;;14.52;6.32;;;7.30;88.80;;;;;;5064050;28;20494;-69
2021/12/15 06:29:42;;;;;;;15.60;7.45;;;7.30;88.80;;;;;;5068358;28;20048;-70
2021/12/15 06:32:11;;;;;;;12.55;6.82;;;7.30;88.70;;;;;;5056079;28;20043;-70
2021/12/15 06:34:38;;;;;;;13.30;6.50;;;7.30;88.80;;;;;;5060903;28;20043;-70
2021/12/15 06:37:06;;;;;;;14.75;6.30;;;7.30;88.80;;;;;;5062366;28;20060;-68
2021/12/15 06:39:34;;;;;;;13.68;6.90;;;7.30;88.70;;;;;;5077914;28;20045;-71
2021/12/15 06:42:01;;;;;;;12.23;5.53;;;7.30;88.70;;;;;;5058763;28;20045;-69
2021/12/15 06:44:28;;;;;;;15.00;5.85;;;7.30;88.80;;;;;;5063469;28;20082;-69
2021/12/15 06:58:12;;;;;;;12.70;5.40;;;7.30;88.90;;;;;;5059801;28;20291;-69
2021/12/15 07:00:43;;;;;;;12.18;5.55;;;7.30;88.90;;;;;;5058742;28;20041;-69
2021/12/15 07:03:10;;;;;;;15.75;7.65;;;7.30;88.90;;;;;;5062284;28;20127;-69
2021/12/15 07:05:39;;;;;;;13.80;5.65;;;7.40;88.90;;;;;;5061485;28;20052;-68
2021/12/15 07:08:07;;;;;;;14.02;5.85;;;7.30;88.90;;;;;;5062091;28;20121;-70
2021/12/15 07:10:38;;;;;;;16.13;6.85;;;7.30;88.90;;;;;;5062645;28;20606;-70
2021/12/15 07:13:06;;;;;;;16.08;7.63;;;7.30;88.90;;;;;;5060197;28;20037;-70
2021/12/15 07:15:34;;;;;;;14.00;6.82;;;7.40;88.90;;;;;;5062553;28;20029;-70
2021/12/15 07:18:04;;;;;;;14.82;7.03;;;7.40;88.90;;;;;;5058856;28;20133;-70
2021/12/15 07:20:42;;;;;;;13.45;6.50;;;7.30;88.90;;;;;;5062077;28;20044;-70
2021/12/15 07:23:14;;;;;;;14.82;7.10;;;7.40;89.00;;;;;;5060278;28;20133;-70
2021/12/15 07:25:43;;;;;;;16.33;7.10;;;7.30;89.00;;;;;;5065278;28;20418;-70
2021/12/15 07:28:11;;;;;;;14.88;7.35;;;7.40;89.00;;;;;;5064688;28;20091;-70
2021/12/15 07:30:38;;;;;;;15.52;7.22;;;7.40;89.00;;;;;;5062997;28;20041;-69
2021/12/15 07:33:06;;;;;;;13.75;6.97;;;7.30;89.00;;;;;;5061264;28;20437;-69
2021/12/15 07:35:34;;;;;;;14.38;6.53;;;7.30;89.00;;;;;;5064270;28;20036;-70
2021/12/15 07:38:01;;;;;;;17.50;6.32;;;7.40;89.10;;;;;;5062819;28;20036;-70
2021/12/15 07:40:31;;;;;;;12.68;5.97;;;7.30;89.10;;;;;;5059461;28;20044;-70
2021/12/15 07:43:07;;;;;;;15.70;6.80;;;7.40;89.10;;;;;;5063469;28;20067;-69
2021/12/15 07:45:38;;;;;;;15.70;7.50;;;7.40;89.10;;;;;;5065104;28;20117;-70
2021/12/15 07:48:06;;;;;;;14.93;6.70;;;7.40;89.10;;;;;;5063979;28;20040;-69
2021/12/15 07:50:35;;;;;;;16.27;7.53;;;7.40;89.10;;;;;;5064440;28;20047;-70
2021/12/15 07:53:03;;;;;;;19.88;7.97;;;7.40;89.10;;;;;;5063340;28;20067;-70
2021/12/15 07:55:31;;;;;;;17.63;7.72;;;7.40;89.00;;;;;;5063878;28;20098;-71
2021/12/15 07:57:59;;;;;;;19.88;7.65;;;7.40;89.10;;;;;;5063573;28;20509;-70
2021/12/15 08:00:26;;;;;;;20.20;8.50;;;7.40;89.00;;;;;;5057554;28;22951;-69
2021/12/15 08:02:54;;;;;;;19.70;8.40;;;7.50;89.00;;;;;;5062399;28;20048;-70
2021/12/15 08:05:22;;;;;;;17.48;6.72;;;7.50;89.00;;;;;;5061490;28;20036;-70
2021/12/15 08:07:50;;;;;;;15.63;8.05;;;7.50;89.00;;;;;;5062848;28;20138;-72
2021/12/15 08:10:18;;;;;;;19.83;7.93;;;7.50;89.00;;;;;;5062507;28;20517;-68
2021/12/15 08:12:47;;;;;;;16.60;7.35;;;7.50;89.00;;;;;;5063098;28;20115;-69
2021/12/15 08:15:17;;;;;;;19.42;7.15;;;7.50;89.10;;;;;;5064223;28;20045;-70
2021/12/15 08:17:48;;;;;;;16.80;6.80;;;7.50;89.00;;;;;;5062196;28;20036;-70
2021/12/15 08:20:16;;;;;;;18.67;7.85;;;7.50;89.00;;;;;;5062799;28;20481;-71
2021/12/15 08:22:43;;;;;;;18.08;8.63;;;7.50;89.10;;;;;;5062564;28;20037;-69
2021/12/15 08:25:12;;;;;;;17.38;7.20;;;7.50;89.10;;;;;;5068666;28;20475;-70
2021/12/15 08:27:40;;;;;;;15.25;7.00;;;7.60;89.20;;;;;;5068642;28;20043;-70
2021/12/15 08:30:12;;;;;;;16.90;7.30;;;7.60;89.10;;;;;;5062020;28;20421;-69
2021/12/15 08:32:40;;;;;;;19.35;7.10;;;7.60;89.10;;;;;;5060739;28;20040;-70
2021/12/15 08:35:08;;;;;;;16.92;7.68;;;7.60;89.20;;;;;;5062343;28;20366;-70
2021/12/15 08:37:35;;;;;;;14.52;6.68;;;7.60;89.20;;;;;;5056558;28;20051;-70
2021/12/15 08:40:03;;;;;;;16.77;8.15;;;7.60;89.20;;;;;;5055333;28;20635;-68
2021/12/15 08:42:30;;;;;;;16.05;7.75;;;7.60;89.20;;;;;;5060611;28;20040;-69
2021/12/15 08:44:58;;;;;;;17.48;7.78;;;7.60;89.20;;;;;;5060797;28;20397;-69
2021/12/15 08:47:26;;;;;;;16.88;8.15;;;7.60;89.20;;;;;;5057943;28;20056;-70
2021/12/15 08:49:54;;;;;;;16.13;8.18;;;7.60;89.20;;;;;;5056673;28;20506;-69
2021/12/15 08:52:21;;;;;;;15.38;8.05;;;7.60;89.20;;;;;;5059907;28;20079;-70
2021/12/15 08:54:48;;;;;;;16.95;8.50;;;7.60;89.20;;;;;;5057723;28;20045;-70
2021/12/15 08:57:15;;;;;;;16.33;8.15;;;7.70;89.20;;;;;;5058311;28;20231;-70
2021/12/15 08:59:42;;;;;;;15.68;8.00;;;7.70;89.20;;;;;;5058383;28;20040;-70
2021/12/15 09:02:09;;;;;;;14.93;8.07;;;7.70;89.20;;;;;;5058218;28;20067;-69
2021/12/15 09:04:38;;;;;;;16.92;8.07;;;7.70;89.20;;;;;;5060790;28;20051;-70
2021/12/15 09:07:05;;;;;;;19.02;7.78;;;7.70;89.20;;;;;;5061038;28;20053;-69
2021/12/15 09:09:33;;;;;;;14.00;6.95;;;7.70;89.20;;;;;;5063972;28;20036;-69
2021/12/15 09:12:00;;;;;;;16.08;6.95;;;7.70;89.20;;;;;;5062848;28;20045;-69
2021/12/15 09:14:31;;;;;;;15.48;7.18;;;7.80;89.20;;;;;;5061304;28;20049;-69
2021/12/15 09:17:00;;;;;;;15.07;6.82;;;7.80;89.20;;;;;;5060265;28;20047;-68
2021/12/15 09:19:28;;;;;;;17.60;7.68;;;7.80;89.20;;;;;;5059490;28;20045;-69
2021/12/15 09:21:57;;;;;;;12.75;6.93;;;7.80;89.20;;;;;;5061014;28;20072;-68
2021/12/15 09:24:24;;;;;;;16.00;6.90;;;7.80;89.30;;;;;;5060886;28;20119;-69
2021/12/15 09:26:51;;;;;;;13.77;6.53;;;7.80;89.40;;;;;;5063972;28;20504;-70
2021/12/15 09:29:18;;;;;;;15.98;6.55;;;7.90;89.40;;;;;;5061984;28;20117;-69
2021/12/15 09:31:46;;;;;;;15.52;7.88;;;7.90;89.40;;;;;;5059568;28;20418;-70
2021/12/15 09:34:17;;;;;;;13.15;6.45;;;7.90;89.40;;;;;;5056532;28;20537;-70
2021/12/15 09:36:46;;;;;;;11.85;6.20;;;7.90;89.40;;;;;;5059096;28;20044;-69
2021/12/15 09:39:16;;;;;;;16.10;6.50;;;7.90;89.30;;;;;;5052444;28;20529;-70
2021/12/15 09:41:43;;;;;;;12.02;5.68;;;7.90;89.30;;;;;;5063425;28;20132;-70
2021/12/15 09:44:14;;;;;;;13.93;6.60;;;8.00;89.30;;;;;;5066971;28;20115;-70
2021/12/15 09:47:09;;;;;;;11.25;5.32;;;8.00;89.30;;;;;;5059127;28;20039;-70
2021/12/15 10:06:24;;;;;;;12.18;5.32;;;8.10;89.00;;;;;;5059068;28;20174;-70
2021/12/15 10:19:48;;;;;;;11.70;4.80;;;8.20;88.90;;;;;;5058670;28;20041;-70
2021/12/15 10:22:25;;;;;;;8.77;4.23;;;8.20;88.90;;;;;;5060045;28;20047;-69
2021/12/15 10:24:55;;;;;;;9.43;4.38;;;8.20;88.90;;;;;;5059046;28;20470;-70
2021/12/15 10:27:38;;;;;;;14.02;4.95;;;8.20;88.90;;;;;;5059745;28;20045;-69
2021/12/15 10:30:21;;;;;;;10.63;4.95;;;8.20;88.80;;;;;;5059053;28;20044;-69
2021/12/15 10:32:53;;;;;;;11.60;4.90;;;8.20;88.80;;;;;;5059672;28;20102;-69
2021/12/15 10:35:23;;;;;;;9.00;4.18;;;8.20;88.80;;;;;;5060164;28;20040;-68
2021/12/15 10:38:15;;;;;;;10.23;5.03;;;8.20;88.80;;;;;;5060274;28;20040;-69
2021/12/15 10:40:44;;;;;;;9.52;4.40;;;8.20;88.70;;;;;;5072305;28;20659;-69
2021/12/15 10:43:13;;;;;;;9.55;5.72;;;8.30;88.60;;;;;;5058649;28;20047;-70
2021/12/15 10:45:42;;;;;;;9.65;5.43;;;8.30;88.40;;;;;;5061080;28;20048;-69
2021/12/15 10:48:20;;;;;;;10.32;4.60;;;8.20;88.40;;;;;;5058439;28;20071;-70
2021/12/15 10:50:48;;;;;;;9.38;4.40;;;8.30;88.40;;;;;;5060468;28;20123;-70
2021/12/15 10:53:15;;;;;;;10.07;4.53;;;8.30;88.40;;;;;;5060182;28;20068;-69
2021/12/15 10:55:42;;;;;;;11.32;4.78;;;8.30;88.40;;;;;;5059408;28;20051;-70
2021/12/15 10:58:34;;;;;;;10.23;5.00;;;8.30;88.50;;;;;;5058878;28;20044;-69
2021/12/15 11:01:05;;;;;;;10.65;5.03;;;8.40;88.30;;;;;;5053378;28;20048;-69
2021/12/15 11:03:39;;;;;;;12.50;5.78;;;8.40;88.30;;;;;;5058542;28;20055;-70
2021/12/15 11:06:23;;;;;;;10.98;4.50;;;8.40;88.00;;;;;;5062687;28;20556;-70
2021/12/15 11:09:10;;;;;;;9.48;4.70;;;8.40;87.90;;;;;;5059873;28;20090;-69
2021/12/15 11:11:37;;;;;;;10.57;4.82;;;8.40;87.90;;;;;;5061406;28;20024;-68
2021/12/15 11:14:23;;;;;;;11.15;4.88;;;8.40;87.80;;;;;;5061950;28;20040;-69
2021/12/15 11:17:03;;;;;;;10.40;4.63;;;8.40;87.80;;;;;;5061440;28;20486;-69
2021/12/15 11:19:44;;;;;;;10.43;4.93;;;8.50;87.80;;;;;;5055914;28;20044;-70
2021/12/15 11:22:44;;;;;;;10.02;5.05;;;8.50;87.80;;;;;;5060885;28;20127;-69
2021/12/15 11:25:18;;;;;;;10.32;4.60;;;8.40;87.80;;;;;;5057013;28;20040;-69
2021/12/15 11:27:48;;;;;;;10.05;4.45;;;8.50;87.70;;;;;;5055165;28;20124;-69
2021/12/15 11:30:23;;;;;;;9.48;4.18;;;8.50;87.60;;;;;;5062963;28;20062;-69
2021/12/15 11:32:53;;;;;;;9.57;5.13;;;8.50;87.50;;;;;;5065091;28;20047;-70
2021/12/15 11:35:24;;;;;;;10.95;4.85;;;8.50;87.40;;;;;;5061398;28;20036;-71
2021/12/15 11:37:56;;;;;;;12.43;5.28;;;8.50;87.50;;;;;;5064050;28;20044;-69
2021/12/15 11:40:35;;;;;;;10.48;4.43;;;8.50;87.40;;;;;;5062552;28;20639;-68
2021/12/15 11:43:05;;;;;;;9.63;4.47;;;8.50;87.40;;;;;;5063015;28;20047;-69
2021/12/15 11:45:39;;;;;;;10.13;4.60;;;8.50;87.40;;;;;;5063126;28;20663;-70
2021/12/15 11:48:23;;;;;;;9.25;5.43;;;8.50;87.40;;;;;;5063289;28;20046;-69
2021/12/15 11:50:52;;;;;;;11.25;4.80;;;8.60;87.40;;;;;;5060401;28;20907;-69
2021/12/15 11:53:30;;;;;;;12.65;5.32;;;8.60;87.40;;;;;;5061170;28;20051;-69
2021/12/15 11:56:16;;;;;;;11.02;5.07;;;8.60;87.30;;;;;;5061272;28;20040;-70
2021/12/15 11:58:44;;;;;;;9.77;4.90;;;8.60;87.30;;;;;;5062231;28;20123;-69
2021/12/15 12:01:44;;;;;;;10.68;5.70;;;8.60;87.40;;;;;;5058909;28;20037;-69
2021/12/15 12:04:20;;;;;;;9.90;4.68;;;8.60;87.50;;;;;;5062420;28;20040;-69
2021/12/15 12:06:51;;;;;;;12.15;4.93;;;8.60;87.50;;;;;;5062087;28;20136;-70
2021/12/15 12:09:20;;;;;;;12.02;5.53;;;8.60;87.50;;;;;;5062453;28;20097;-69
2021/12/15 12:11:52;;;;;;;10.43;4.82;;;8.60;87.60;;;;;;5062158;28;20494;-70
2021/12/15 12:14:37;;;;;;;10.85;4.88;;;8.60;87.60;;;;;;5061540;28;20036;-68
2021/12/15 12:17:12;;;;;;;11.00;5.53;;;8.60;87.60;;;;;;5060861;28;20039;-70
2021/12/15 12:19:43;;;;;;;11.52;5.03;;;8.60;87.60;;;;;;5060719;28;20115;-70
2021/12/15 12:22:11;;;;;;;11.63;5.32;;;8.70;87.60;;;;;;5060709;28;20063;-69
2021/12/15 12:24:39;;;;;;;11.27;5.60;;;8.70;87.60;;;;;;5061604;28;20592;-69
2021/12/15 12:27:06;;;;;;;12.32;5.20;;;8.70;87.40;;;;;;5066244;28;20125;-68
2021/12/15 12:29:34;;;;;;;12.18;6.03;;;8.70;87.40;;;;;;5069550;28;20311;-69
2021/12/15 12:32:01;;;;;;;9.75;5.15;;;8.70;87.30;;;;;;5067590;28;23265;-69
2021/12/15 12:34:31;;;;;;;10.52;5.15;;;8.70;87.30;;;;;;5062837;28;20036;-69
2021/12/15 12:36:58;;;;;;;12.10;5.03;;;8.70;87.20;;;;;;5062381;28;20049;-69
2021/12/15 12:39:31;;;;;;;9.90;4.88;;;8.70;87.10;;;;;;5065643;28;20492;-70
2021/12/15 12:41:59;;;;;;;10.18;5.10;;;8.60;87.20;;;;;;5062541;28;20047;-69
2021/12/15 12:44:34;;;;;;;9.63;4.85;;;8.70;87.20;;;;;;5061311;28;20082;-70
2021/12/15 12:47:05;;;;;;;10.07;5.13;;;8.60;87.20;;;;;;5059745;28;20064;-69
2021/12/15 13:01:03;;;;;;;11.50;6.07;;;8.60;87.70;;;;;;5016668;28;20084;-70
2021/12/15 13:03:37;;;;;;;12.48;5.72;;;8.60;87.70;;;;;;5051761;28;20115;-69
2021/12/15 13:06:07;;;;;;;11.30;5.07;;;8.60;87.70;;;;;;5062201;28;20040;-69
2021/12/15 13:08:40;;;;;;;11.05;5.60;;;8.60;87.60;;;;;;5062477;28;20036;-71
2021/12/15 13:11:16;;;;;;;13.07;5.78;;;8.70;87.60;;;;;;5061296;28;20135;-69
2021/12/15 13:14:01;;;;;;;9.82;5.10;;;8.70;87.60;;;;;;5063261;28;20045;-70
2021/12/15 13:16:37;;;;;;;12.63;5.60;;;8.70;87.50;;;;;;5077388;28;20044;-70
2021/12/15 13:19:15;;;;;;;10.68;4.93;;;8.70;87.40;;;;;;5059515;28;20576;-71
2021/12/15 13:21:56;;;;;;;11.93;5.57;;;8.70;87.30;;;;;;5060056;28;20486;-69
2021/12/15 13:30:30;;;;;;;10.05;5.20;;;8.60;87.20;;;;;;5059331;28;20116;-70
2021/12/15 13:33:04;;;;;;;;;;;8.60;87.20;;;;;;5059637;28;20505;-69
2021/12/15 13:35:38;;;;;;;8.35;4.40;;;8.60;87.20;;;;;;5059737;28;19920;-69
2021/12/15 13:38:07;;;;;;;9.02;4.75;;;8.60;87.10;;;;;;5059772;28;20095;-70
2021/12/15 13:40:59;;;;;;;10.07;5.03;;;8.60;87.10;;;;;;5057010;28;20040;-69
2021/12/15 13:44:02;;;;;;;11.23;4.82;;;8.60;87.10;;;;;;5057010;28;20049;-71
2021/12/15 13:46:41;;;;;;;11.10;5.70;;;8.60;87.10;;;;;;5050800;28;20460;-70
2021/12/15 13:49:17;;;;;;;10.02;4.45;;;8.60;87.00;;;;;;5059088;28;20116;-69
2021/12/15 13:51:56;;;;;;;9.73;4.50;;;8.70;87.00;;;;;;5057101;28;20037;-71
2021/12/15 13:54:56;;;;;;;13.00;5.68;;;8.60;87.00;;;;;;5057690;28;20473;-69
2021/12/15 13:57:31;;;;;;;10.30;4.82;;;8.60;87.00;;;;;;5060242;28;20044;-69
2021/12/15 14:00:15;;;;;;;10.05;4.75;;;8.60;86.90;;;;;;5059176;28;20044;-69
2021/12/15 14:02:54;;;;;;;10.90;4.68;;;8.60;86.80;;;;;;5060767;28;20066;-69
2021/12/15 14:05:24;;;;;;;9.73;4.47;;;8.60;86.80;;;;;;5059770;28;20048;-69
2021/12/15 14:07:53;;;;;;;11.35;5.53;;;8.60;86.80;;;;;;5060635;28;20043;-70
2021/12/15 14:10:53;;;;;;;10.50;5.15;;;8.60;86.90;;;;;;5059804;28;20047;-69
2021/12/15 14:13:36;;;;;;;9.32;4.85;;;8.60;86.90;;;;;;5061090;28;20048;-70
2021/12/15 14:16:03;;;;;;;9.45;4.78;;;8.60;87.00;;;;;;5062820;28;20036;-69
2021/12/15 14:18:33;;;;;;;8.93;4.05;;;8.60;87.00;;;;;;5058735;28;20369;-69
2021/12/15 14:21:03;;;;;;;13.07;4.43;;;8.60;87.00;;;;;;5062016;28;20040;-68
2021/12/15 14:23:35;;;;;;;10.73;4.53;;;8.60;87.10;;;;;;5061558;28;20520;-70
2021/12/15 14:26:05;;;;;;;8.68;4.53;;;8.60;87.00;;;;;;5059371;28;20111;-69
2021/12/15 14:28:36;;;;;;;14.07;5.18;;;8.60;87.00;;;;;;5061102;28;20076;-69
2021/12/15 14:31:08;;;;;;;10.68;4.18;;;8.60;87.10;;;;;;5062594;28;20056;-70
2021/12/15 14:33:37;;;;;;;10.27;4.78;;;8.60;87.10;;;;;;5062007;28;20068;-69
2021/12/15 14:36:09;;;;;;;9.75;4.65;;;8.60;87.20;;;;;;5060930;28;20671;-69